Terminal Aerodrome Forecast
Issued by NWS Grand Forks, ND

Home | Current Version | Previous Version | Text Only | Print | Product List | Glossary Off
Versions: 1 2 3 4 5 6 7 8 9 10 11 12 13 14 15 16 17 18 19 20 21 22 23 24 25

000
FTUS43 KFGF 251137
TAFGFK
TAF
KGFK 251137Z 2512/2612 08007KT P6SM BKN130
     FM251700 09010KT P6SM -SHRA BKN090
     FM252300 10012KT 5SM -SHRA BKN020
      TEMPO 2523/2524 TS BKN040CB
     FM260200 16009KT P6SM -SHRA BKN015
     FM260500 19008KT P6SM BKN015=

USA.gov is the U.S. government's official web portal to all federal, state and local government web resources and services.